Blisworth, United Kingdom
Current Conditions -  °F | °C
As of 2:20 PM on Tuesday 21 Oct 2014 (Local Time) from EGTC Reporting Station
Rain Showers Rain Showers  
Wind Chill: 50°   Ceiling: Unl
Heat Index: 50°   Visibility: 6mi
Dew Point: 46°   Wind: 26mph
Humidity: 87%   Direction: 290°WNW
Pressure: 29.71"   Gusts: 44mph
Location:  52.17°N, 0.94°W
Report Text: EGTC 211320Z 29023G38KT 9999 VCSH FEW015 10/08 Q1006
Loading
Personal Weather Stations






























Interactive Weather Map
Tropical Storm Tracking
New forecast layout! Learn more

10-Day Weather Forecast

Advertisements
Track Severe Weather on mobile